createdAt,value
2022-12-29T00:00:56.534Z,10.23
2022-12-29T00:03:23.632Z,10.23
2022-12-29T00:05:57.269Z,10.26
2022-12-29T00:08:40.141Z,10.27
2022-12-29T00:11:14.755Z,10.30
2022-12-29T00:14:00.996Z,10.30
2022-12-29T00:16:29.328Z,10.30
2022-12-29T00:18:56.321Z,10.32
2022-12-29T00:21:43.562Z,10.33
2022-12-29T00:24:26.399Z,10.31
2022-12-29T00:27:17.908Z,10.33
2022-12-29T00:30:03.788Z,10.33
2022-12-29T00:32:49.849Z,10.35
2022-12-29T00:35:30.231Z,10.36
2022-12-29T00:38:20.944Z,10.39
2022-12-29T00:41:06.474Z,10.40
2022-12-29T00:43:52.812Z,10.42
2022-12-29T00:46:20.445Z,10.45
2022-12-29T00:49:05.924Z,10.46
2022-12-29T00:51:32.852Z,10.48
2022-12-29T00:53:59.792Z,10.50
2022-12-29T00:56:26.715Z,10.53
2022-12-29T00:58:53.664Z,10.55
2022-12-29T01:01:20.830Z,10.56
2022-12-29T01:03:47.814Z,10.57
2022-12-29T01:06:15.700Z,10.60
2022-12-29T01:08:42.664Z,10.63
2022-12-29T01:11:13.789Z,10.64
2022-12-29T01:13:42.173Z,10.67
2022-12-29T01:16:09.191Z,10.69
2022-12-29T01:18:36.226Z,10.70
2022-12-29T01:21:07.329Z,10.71
2022-12-29T01:23:34.475Z,10.73
2022-12-29T01:26:13.475Z,10.75
2022-12-29T01:28:42.429Z,10.76
2022-12-29T01:31:10.494Z,10.76
2022-12-29T01:33:37.903Z,10.76
2022-12-29T01:36:08.240Z,10.75
2022-12-29T01:38:37.084Z,10.76
2022-12-29T01:41:05.662Z,10.76
2022-12-29T01:43:52.199Z,10.75
2022-12-29T01:46:27.433Z,10.76
2022-12-29T01:49:05.934Z,10.77
2022-12-29T01:51:39.927Z,10.77
2022-12-29T01:54:17.128Z,10.80
2022-12-29T01:56:44.864Z,10.80
2022-12-29T01:59:18.802Z,10.81
2022-12-29T02:01:46.270Z,10.83
2022-12-29T02:04:14.071Z,10.82
2022-12-29T02:07:00.456Z,10.85
2022-12-29T02:09:27.482Z,10.83
2022-12-29T02:11:54.807Z,10.83
2022-12-29T02:14:21.707Z,10.82
2022-12-29T02:17:27.806Z,10.80
2022-12-29T02:20:41.673Z,10.77
2022-12-29T02:23:34.247Z,10.73
2022-12-29T02:26:44.180Z,10.67
2022-12-29T02:29:25.737Z,10.66
2022-12-29T02:32:06.668Z,10.64
2022-12-29T02:35:00.674Z,10.60
2022-12-29T02:37:38.306Z,10.60
2022-12-29T02:40:29.153Z,10.57
2022-12-29T02:43:15.052Z,10.56
2022-12-29T02:46:20.338Z,10.54
2022-12-29T02:48:55.432Z,10.52
2022-12-29T02:51:48.033Z,10.50
2022-12-29T02:54:37.028Z,10.48
2022-12-29T02:57:04.250Z,10.43
2022-12-29T02:59:31.433Z,10.38
2022-12-29T03:02:47.086Z,10.34
2022-12-29T03:05:27.583Z,10.28
2022-12-29T03:08:32.923Z,10.26
2022-12-29T03:11:30.964Z,10.22
2022-12-29T03:14:46.409Z,10.21
2022-12-29T03:17:36.644Z,10.19
2022-12-29T03:20:10.407Z,10.18
2022-12-29T03:22:45.947Z,10.17
2022-12-29T03:25:28.889Z,10.16
2022-12-29T03:28:06.062Z,10.18
2022-12-29T03:30:40.371Z,10.18
2022-12-29T03:33:13.504Z,10.19
2022-12-29T03:35:44.827Z,10.19
2022-12-29T03:38:19.419Z,10.19
2022-12-29T03:40:56.655Z,10.19
2022-12-29T03:43:26.921Z,10.20
2022-12-29T03:45:55.399Z,10.21
2022-12-29T03:48:22.953Z,10.20
2022-12-29T03:50:51.463Z,10.22
2022-12-29T03:53:19.937Z,10.22
2022-12-29T03:55:47.595Z,10.23
2022-12-29T03:58:14.574Z,10.24
2022-12-29T04:00:51.985Z,10.23
2022-12-29T04:03:19.087Z,10.24
2022-12-29T04:05:46.031Z,10.26
2022-12-29T04:08:13.054Z,10.27
2022-12-29T04:10:40.242Z,10.29
2022-12-29T04:13:07.843Z,10.31
2022-12-29T04:15:35.624Z,10.32
2022-12-29T04:18:02.860Z,10.34
2022-12-29T04:20:48.074Z,10.36
2022-12-29T04:23:15.193Z,10.38
2022-12-29T04:25:45.898Z,10.40
2022-12-29T04:28:15.294Z,10.41
2022-12-29T04:31:01.598Z,10.43
2022-12-29T04:33:40.756Z,10.44
2022-12-29T04:36:08.028Z,10.45
2022-12-29T04:38:36.943Z,10.45
2022-12-29T04:41:05.366Z,10.47
2022-12-29T04:43:33.631Z,10.51
2022-12-29T04:46:24.209Z,10.50
2022-12-29T04:49:09.179Z,10.51
2022-12-29T04:51:53.438Z,10.53
2022-12-29T04:54:20.886Z,10.55
2022-12-29T04:56:55.696Z,10.57
2022-12-29T04:59:22.720Z,10.59
2022-12-29T05:01:53.017Z,10.62
2022-12-29T05:04:20.122Z,10.64
2022-12-29T05:06:48.579Z,10.64
2022-12-29T05:09:15.562Z,10.66
2022-12-29T05:11:42.558Z,10.66
2022-12-29T05:14:10.396Z,10.67
2022-12-29T05:16:38.303Z,10.66
2022-12-29T05:19:06.031Z,10.68
2022-12-29T05:21:33.770Z,10.70
2022-12-29T05:24:00.902Z,10.69
2022-12-29T05:26:28.740Z,10.68
2022-12-29T05:29:05.571Z,10.68
2022-12-29T05:31:33.612Z,10.69
2022-12-29T05:34:01.168Z,10.69
2022-12-29T05:36:31.654Z,10.70
2022-12-29T05:39:03.793Z,10.72
2022-12-29T05:41:31.283Z,10.74
2022-12-29T05:44:16.819Z,10.75
2022-12-29T05:46:45.239Z,10.76
2022-12-29T05:49:18.823Z,10.76
2022-12-29T05:52:08.727Z,10.77
2022-12-29T05:54:36.199Z,10.77
2022-12-29T05:57:08.435Z,10.78
2022-12-29T05:59:35.471Z,10.78
2022-12-29T06:02:03.050Z,10.79
2022-12-29T06:04:30.091Z,10.79
2022-12-29T06:06:57.388Z,10.77
2022-12-29T06:09:36.266Z,10.77
2022-12-29T06:12:04.553Z,10.78
2022-12-29T06:14:31.503Z,10.79
2022-12-29T06:16:59.333Z,10.78
2022-12-29T06:19:26.473Z,10.77
2022-12-29T06:21:54.001Z,10.80
2022-12-29T06:24:21.841Z,10.80
2022-12-29T06:26:48.817Z,10.80
2022-12-29T06:29:18.017Z,10.80
2022-12-29T06:31:50.260Z,10.81
2022-12-29T06:34:17.481Z,10.82
2022-12-29T06:36:44.401Z,10.81
2022-12-29T06:39:12.038Z,10.84
2022-12-29T06:41:39.138Z,10.87
2022-12-29T06:44:29.053Z,10.88
2022-12-29T06:47:00.974Z,10.92
2022-12-29T06:49:27.891Z,10.96
2022-12-29T06:51:54.859Z,10.98
2022-12-29T06:54:21.777Z,11.01
2022-12-29T06:56:48.721Z,11.02
2022-12-29T06:59:15.624Z,11.04
2022-12-29T07:01:42.689Z,11.06
2022-12-29T07:04:09.676Z,11.08
2022-12-29T07:06:36.937Z,11.09
2022-12-29T07:09:03.900Z,11.10
2022-12-29T07:11:30.804Z,11.11
2022-12-29T07:14:04.508Z,11.12
2022-12-29T07:16:32.564Z,11.13
2022-12-29T07:19:00.435Z,11.16
2022-12-29T07:21:27.365Z,11.16
2022-12-29T07:23:55.839Z,11.17
2022-12-29T07:26:22.879Z,11.18
2022-12-29T07:28:49.809Z,11.20
2022-12-29T07:31:21.176Z,11.22
2022-12-29T07:33:49.169Z,11.23
2022-12-29T07:36:18.253Z,11.23
2022-12-29T07:38:45.193Z,11.24
2022-12-29T07:41:12.146Z,11.26
2022-12-29T07:43:39.692Z,11.27
2022-12-29T07:46:55.492Z,11.26
2022-12-29T07:49:19.802Z,11.28
2022-12-29T07:51:46.711Z,11.28
2022-12-29T07:54:13.750Z,11.30
2022-12-29T07:56:40.708Z,11.32
2022-12-29T07:59:07.745Z,11.34
2022-12-29T08:01:34.792Z,11.37
2022-12-29T08:04:01.920Z,11.37
2022-12-29T08:06:30.032Z,11.37
2022-12-29T08:08:57.908Z,11.38
2022-12-29T08:11:25.082Z,11.41
2022-12-29T08:13:52.464Z,11.40
2022-12-29T08:16:19.595Z,11.41
2022-12-29T08:18:46.523Z,11.42
2022-12-29T08:21:13.461Z,11.41
2022-12-29T08:23:40.416Z,11.43
2022-12-29T08:26:07.343Z,11.44
2022-12-29T08:28:34.336Z,11.47
2022-12-29T08:31:03.931Z,11.46
2022-12-29T08:33:31.029Z,11.47
2022-12-29T08:36:06.911Z,11.49
2022-12-29T08:38:34.163Z,11.49
2022-12-29T08:41:04.447Z,11.52
2022-12-29T08:43:31.776Z,11.54
2022-12-29T08:45:59.720Z,11.55
2022-12-29T08:48:27.584Z,11.57
2022-12-29T08:50:54.837Z,11.58
2022-12-29T08:53:21.884Z,11.60
2022-12-29T08:56:04.213Z,11.59
2022-12-29T08:58:38.152Z,11.61
2022-12-29T09:01:05.384Z,11.65
2022-12-29T09:06:21.371Z,11.68
2022-12-29T09:08:48.273Z,11.70
2022-12-29T09:11:23.139Z,11.72
2022-12-29T09:13:50.823Z,11.76
2022-12-29T09:16:18.995Z,11.77
2022-12-29T09:18:46.184Z,11.80
2022-12-29T09:21:13.679Z,11.83
2022-12-29T09:23:41.359Z,11.86
2022-12-29T09:26:09.600Z,11.87
2022-12-29T09:28:37.743Z,11.92
2022-12-29T09:31:05.203Z,11.94
2022-12-29T09:33:34.361Z,11.94
2022-12-29T09:36:01.321Z,11.96
2022-12-29T09:38:29.427Z,11.98
2022-12-29T09:41:14.134Z,11.98
2022-12-29T09:44:16.304Z,11.99
2022-12-29T09:46:49.091Z,12.03
2022-12-29T09:49:46.962Z,12.02
2022-12-29T09:52:32.019Z,12.02
2022-12-29T09:55:33.147Z,11.98
2022-12-29T09:58:06.712Z,11.99
2022-12-29T10:01:01.322Z,11.97
2022-12-29T10:03:54.235Z,11.93
2022-12-29T10:07:19.405Z,11.94
2022-12-29T10:09:46.587Z,11.95
2022-12-29T10:12:30.880Z,11.96
2022-12-29T10:15:33.150Z,11.94
2022-12-29T10:18:25.085Z,11.96
2022-12-29T10:21:40.789Z,11.97
2022-12-29T10:24:12.562Z,11.96
2022-12-29T10:26:44.848Z,11.99
2022-12-29T10:29:21.326Z,11.99
2022-12-29T10:32:05.914Z,11.99
2022-12-29T10:34:39.371Z,11.98
2022-12-29T10:37:16.958Z,11.98
2022-12-29T10:39:53.006Z,11.96
2022-12-29T10:42:38.333Z,11.94
2022-12-29T10:45:07.070Z,11.95
2022-12-29T10:47:53.875Z,11.96
2022-12-29T10:50:21.217Z,11.95
2022-12-29T10:52:49.438Z,11.94
2022-12-29T10:55:51.546Z,11.95
2022-12-29T10:58:21.836Z,11.93
2022-12-29T11:00:55.242Z,11.92
2022-12-29T11:04:00.031Z,11.91
2022-12-29T11:06:30.181Z,11.94
2022-12-29T11:09:17.078Z,11.94
2022-12-29T11:11:44.067Z,11.95
2022-12-29T11:14:22.347Z,11.96
2022-12-29T11:17:01.663Z,11.99
2022-12-29T11:19:36.112Z,12.02
2022-12-29T11:22:32.911Z,12.00
2022-12-29T11:25:13.180Z,11.99
2022-12-29T11:27:40.761Z,12.02
2022-12-29T11:30:25.963Z,12.03
2022-12-29T11:32:55.525Z,12.04
2022-12-29T11:35:37.304Z,12.07
2022-12-29T11:38:22.995Z,12.12
2022-12-29T11:40:50.667Z,12.17
2022-12-29T11:43:44.063Z,12.22
2022-12-29T11:46:37.282Z,12.23
2022-12-29T11:49:05.453Z,12.31
2022-12-29T11:51:44.873Z,12.30
2022-12-29T11:54:32.193Z,12.33
2022-12-29T11:57:09.832Z,12.35
2022-12-29T11:59:44.622Z,12.35
2022-12-29T12:02:42.613Z,12.36
2022-12-29T12:05:24.177Z,12.37
2022-12-29T12:08:01.915Z,12.42
2022-12-29T12:11:03.121Z,12.48
2022-12-29T12:13:46.894Z,12.53
2022-12-29T12:16:19.320Z,12.57
2022-12-29T12:19:13.347Z,12.61
2022-12-29T12:21:46.066Z,12.61
2022-12-29T12:24:48.281Z,12.60
2022-12-29T12:27:21.653Z,12.57
2022-12-29T12:30:12.969Z,12.53
2022-12-29T12:32:43.876Z,12.53
2022-12-29T12:35:25.002Z,12.52
2022-12-29T12:38:33.535Z,12.47
2022-12-29T12:41:39.596Z,12.44
2022-12-29T12:44:56.523Z,12.44
2022-12-29T12:47:40.562Z,12.40
2022-12-29T12:50:30.365Z,12.39
2022-12-29T12:53:38.624Z,12.39
2022-12-29T12:56:52.547Z,12.39
2022-12-29T12:59:51.537Z,12.38
2022-12-29T13:02:39.421Z,12.34
2022-12-29T13:05:33.405Z,12.35
2022-12-29T13:08:45.283Z,12.33
2022-12-29T13:11:26.730Z,12.32
2022-12-29T13:14:24.019Z,12.17
2022-12-29T13:17:16.433Z,11.94
2022-12-29T13:20:12.245Z,11.73
2022-12-29T13:23:05.452Z,11.58
2022-12-29T13:25:43.900Z,11.46
2022-12-29T13:29:11.907Z,11.33
2022-12-29T13:32:07.868Z,11.24
2022-12-29T13:35:21.928Z,11.14
2022-12-29T13:38:11.272Z,11.07
2022-12-29T13:40:46.267Z,11.01
2022-12-29T13:43:17.052Z,10.96
2022-12-29T13:45:46.309Z,10.93
2022-12-29T13:48:22.469Z,10.90
2022-12-29T13:50:58.310Z,10.87
2022-12-29T13:54:17.588Z,10.83
2022-12-29T13:56:52.762Z,10.80
2022-12-29T13:59:27.671Z,10.75
2022-12-29T14:02:09.744Z,10.71
2022-12-29T14:04:37.363Z,10.68
2022-12-29T14:07:17.928Z,10.67
2022-12-29T14:09:55.950Z,10.64
2022-12-29T14:12:31.284Z,10.62
2022-12-29T14:15:09.671Z,10.62
2022-12-29T14:17:44.633Z,10.60
2022-12-29T14:20:23.829Z,10.57
2022-12-29T14:23:09.873Z,10.55
2022-12-29T14:25:58.343Z,10.53
2022-12-29T14:28:39.040Z,10.50
2022-12-29T14:31:31.944Z,10.48
2022-12-29T14:34:07.977Z,10.47
2022-12-29T14:36:38.735Z,10.45
2022-12-29T14:39:37.382Z,10.45
2022-12-29T14:42:10.420Z,10.44
2022-12-29T14:44:56.115Z,10.43
2022-12-29T14:47:37.834Z,10.41
2022-12-29T14:50:26.097Z,10.38
2022-12-29T14:53:04.180Z,10.36
2022-12-29T14:55:40.871Z,10.35
2022-12-29T14:58:33.206Z,10.29
2022-12-29T15:01:05.124Z,10.26
2022-12-29T15:03:53.590Z,10.19
2022-12-29T15:06:23.280Z,10.15
2022-12-29T15:08:52.060Z,10.09
2022-12-29T15:11:36.389Z,10.05
2022-12-29T15:14:04.222Z,9.99
2022-12-29T15:16:37.673Z,9.92
2022-12-29T15:19:06.136Z,9.86
2022-12-29T15:21:36.475Z,9.79
2022-12-29T15:24:05.017Z,9.76
2022-12-29T15:26:41.326Z,9.73
2022-12-29T15:29:41.861Z,9.68
2022-12-29T15:32:28.422Z,9.64
2022-12-29T15:35:00.932Z,9.62
2022-12-29T15:37:36.821Z,9.59
2022-12-29T15:40:04.921Z,9.57
2022-12-29T15:42:56.703Z,9.55
2022-12-29T15:45:33.100Z,9.55
2022-12-29T15:48:00.703Z,9.54
2022-12-29T15:50:31.584Z,9.54
2022-12-29T15:52:59.986Z,9.54
2022-12-29T15:55:39.685Z,9.53
2022-12-29T15:58:21.715Z,9.53
2022-12-29T16:00:55.604Z,9.53
2022-12-29T16:03:26.194Z,9.52
2022-12-29T16:06:09.035Z,9.51
2022-12-29T16:08:41.128Z,9.49
2022-12-29T16:11:41.558Z,9.47
2022-12-29T16:14:16.165Z,9.46
2022-12-29T16:16:45.743Z,9.46
2022-12-29T16:19:38.302Z,9.46
2022-12-29T16:22:18.387Z,9.46
2022-12-29T16:24:46.484Z,9.43
2022-12-29T16:27:40.874Z,9.42
2022-12-29T16:30:24.330Z,9.42
2022-12-29T16:33:00.567Z,9.41
2022-12-29T16:35:30.908Z,9.39
2022-12-29T16:38:19.113Z,9.37
2022-12-29T16:41:03.418Z,9.37
2022-12-29T16:43:42.597Z,9.37
2022-12-29T16:46:32.887Z,9.34
2022-12-29T16:49:00.094Z,9.34
2022-12-29T16:51:37.231Z,9.31
2022-12-29T16:54:05.140Z,9.32
2022-12-29T16:56:36.273Z,9.30
2022-12-29T16:59:17.247Z,9.28
2022-12-29T17:01:44.594Z,9.27
2022-12-29T17:04:14.464Z,9.25
2022-12-29T17:06:41.945Z,9.25
2022-12-29T17:09:27.477Z,9.24
2022-12-29T17:12:08.814Z,9.22
2022-12-29T17:14:59.904Z,9.22
2022-12-29T17:17:43.403Z,9.21
2022-12-29T17:20:29.143Z,9.20
2022-12-29T17:22:56.811Z,9.18
2022-12-29T17:25:33.303Z,9.17
2022-12-29T17:28:05.000Z,9.17
2022-12-29T17:30:35.932Z,9.16
2022-12-29T17:33:13.323Z,9.15
2022-12-29T17:35:40.245Z,9.15
2022-12-29T17:38:19.879Z,9.13
2022-12-29T17:40:47.252Z,9.14
2022-12-29T17:43:16.470Z,9.13
2022-12-29T17:45:45.101Z,9.12
2022-12-29T17:48:15.345Z,9.12
2022-12-29T17:50:43.876Z,9.12
2022-12-29T17:53:19.766Z,9.10
2022-12-29T17:55:46.845Z,9.09
2022-12-29T17:58:23.676Z,9.09
2022-12-29T18:00:54.804Z,9.07
2022-12-29T18:03:28.681Z,9.06
2022-12-29T18:05:56.266Z,9.07
2022-12-29T18:08:23.364Z,9.05
2022-12-29T18:10:53.809Z,9.01
2022-12-29T18:13:43.622Z,8.98
2022-12-29T18:16:13.580Z,8.98
2022-12-29T18:18:40.597Z,8.95
2022-12-29T18:21:17.064Z,8.92
2022-12-29T18:23:44.363Z,8.91
2022-12-29T18:26:27.692Z,8.87
2022-12-29T18:28:56.670Z,8.84
2022-12-29T18:31:30.552Z,8.82
2022-12-29T18:33:59.929Z,8.80
2022-12-29T18:36:27.654Z,8.80
2022-12-29T18:38:54.980Z,8.77
2022-12-29T18:41:25.448Z,8.76
2022-12-29T18:43:52.848Z,8.77
2022-12-29T18:46:23.239Z,8.76
2022-12-29T18:48:51.884Z,8.76
2022-12-29T18:51:26.094Z,8.73
2022-12-29T18:53:54.102Z,8.74
2022-12-29T18:56:23.393Z,8.72
2022-12-29T18:58:51.453Z,8.73
2022-12-29T19:01:27.798Z,8.72
2022-12-29T19:03:55.294Z,8.70
2022-12-29T19:06:23.166Z,8.70
2022-12-29T19:08:50.123Z,8.69
2022-12-29T19:11:17.788Z,8.67
2022-12-29T19:13:44.819Z,8.67
2022-12-29T19:16:21.633Z,8.67
2022-12-29T19:19:05.884Z,8.66
2022-12-29T19:21:36.760Z,8.65
2022-12-29T19:24:04.002Z,8.64
2022-12-29T19:26:36.216Z,8.64
2022-12-29T19:29:04.400Z,8.64
2022-12-29T19:31:31.422Z,8.63
2022-12-29T19:33:58.368Z,8.62
2022-12-29T19:36:25.451Z,8.62
2022-12-29T19:38:53.215Z,8.62
2022-12-29T19:41:21.059Z,8.60
2022-12-29T19:43:47.997Z,8.60
2022-12-29T19:46:18.021Z,8.60
2022-12-29T19:48:45.221Z,8.58
2022-12-29T19:51:17.090Z,8.57
2022-12-29T19:53:45.881Z,8.56
2022-12-29T19:56:14.321Z,8.55
2022-12-29T19:58:46.931Z,8.54
2022-12-29T20:01:22.112Z,8.51
2022-12-29T20:03:50.109Z,8.51
2022-12-29T20:06:17.399Z,8.50
2022-12-29T20:08:44.321Z,8.50
2022-12-29T20:11:17.479Z,8.48
2022-12-29T20:13:44.988Z,8.48
2022-12-29T20:16:16.412Z,8.45
2022-12-29T20:18:44.186Z,8.43
2022-12-29T20:21:21.867Z,8.42
2022-12-29T20:23:51.169Z,8.41
2022-12-29T20:26:28.835Z,8.40
2022-12-29T20:29:00.755Z,8.38
2022-12-29T20:31:34.460Z,8.36
2022-12-29T20:34:01.795Z,8.35
2022-12-29T20:36:33.293Z,8.33
2022-12-29T20:39:06.600Z,8.34
2022-12-29T20:41:33.882Z,8.33
2022-12-29T20:44:02.237Z,8.31
2022-12-29T20:46:36.474Z,8.31
2022-12-29T20:49:08.691Z,8.29
2022-12-29T20:52:04.375Z,8.28
2022-12-29T20:54:23.517Z,8.29
2022-12-29T20:56:51.978Z,8.28
2022-12-29T20:59:28.106Z,8.28
2022-12-29T21:01:56.746Z,8.27
2022-12-29T21:04:23.930Z,8.26
2022-12-29T21:06:50.830Z,8.25
2022-12-29T21:09:18.591Z,8.25
2022-12-29T21:11:46.666Z,8.25
2022-12-29T21:14:13.816Z,8.23
2022-12-29T21:16:40.869Z,8.22
2022-12-29T21:19:07.798Z,8.22
2022-12-29T21:21:35.069Z,8.22
2022-12-29T21:24:05.984Z,8.22
2022-12-29T21:26:33.821Z,8.22
2022-12-29T21:29:03.299Z,8.21
2022-12-29T21:31:37.125Z,8.19
2022-12-29T21:34:06.179Z,8.18
2022-12-29T21:36:33.351Z,8.19
2022-12-29T21:39:00.753Z,8.17
2022-12-29T21:41:27.727Z,8.17
2022-12-29T21:44:13.877Z,8.15
2022-12-29T21:46:43.801Z,8.15
2022-12-29T21:49:10.805Z,8.14
2022-12-29T21:51:49.893Z,8.13
2022-12-29T21:54:41.908Z,8.12
2022-12-29T21:57:10.758Z,8.11
2022-12-29T21:59:56.676Z,8.11
2022-12-29T22:02:45.793Z,8.10
2022-12-29T22:05:34.230Z,8.09
2022-12-29T22:08:21.624Z,8.09
2022-12-29T22:11:07.578Z,8.08
2022-12-29T22:13:38.299Z,8.07
2022-12-29T22:16:08.133Z,8.07
2022-12-29T22:18:35.277Z,8.06
2022-12-29T22:21:10.371Z,8.06
2022-12-29T22:23:38.032Z,8.05
2022-12-29T22:26:08.205Z,8.05
2022-12-29T22:28:40.373Z,8.05
2022-12-29T22:31:27.910Z,8.04
2022-12-29T22:34:01.167Z,8.02
2022-12-29T22:36:29.245Z,8.02
2022-12-29T22:38:56.291Z,8.01
2022-12-29T22:41:23.462Z,8.01
2022-12-29T22:43:50.388Z,8.02
2022-12-29T22:46:17.364Z,8.00
2022-12-29T22:48:44.384Z,8.00
2022-12-29T22:51:11.337Z,8.00
2022-12-29T22:53:39.441Z,7.99
2022-12-29T22:56:13.195Z,7.99
2022-12-29T22:58:46.130Z,7.98
2022-12-29T23:01:16.532Z,7.97
2022-12-29T23:03:44.594Z,7.96
2022-12-29T23:06:13.832Z,7.95
2022-12-29T23:08:40.733Z,7.96
2022-12-29T23:11:10.331Z,7.96
2022-12-29T23:13:38.674Z,7.95
2022-12-29T23:16:05.731Z,7.93
2022-12-29T23:18:32.824Z,7.92
2022-12-29T23:20:59.932Z,7.92
2022-12-29T23:23:49.226Z,7.91
2022-12-29T23:26:18.735Z,7.89
2022-12-29T23:28:46.567Z,7.87
2022-12-29T23:31:14.811Z,7.88
2022-12-29T23:33:41.993Z,7.87
2022-12-29T23:36:10.148Z,7.87
2022-12-29T23:38:37.438Z,7.87
2022-12-29T23:41:04.671Z,7.87
2022-12-29T23:43:32.013Z,7.87
2022-12-29T23:45:59.250Z,7.87
2022-12-29T23:48:26.171Z,7.87
2022-12-29T23:50:53.114Z,7.87
2022-12-29T23:53:20.015Z,7.86
2022-12-29T23:55:54.709Z,7.85
2022-12-29T23:58:22.557Z,7.85
